Time;durP1;ratioP1;P1;durP2;ratioP2;P2;SDS_P1;SDS_P2;PMS_P1;PMS_P2;Temp;Humidity;BMP_temperature;BMP_pressure;BME280_temperature;BME280_humidity;BME280_pressure;Samples;Min_cycle;Max_cycle;Signal;HPM_P1;HPM_P2
2021/08/19 00:01:41;;;;;;;2.35;0.60;;;;;;;13.77;70.74;100397.19;4946407;28;20099;-77
2021/08/19 00:04:17;;;;;;;;;;;;;;;;;;;;;
2021/08/19 00:06:47;;;;;;;1.02;0.93;;;;;;;13.79;70.94;100408.69;4957688;28;20114;-76
2021/08/19 00:10:04;;;;;;;;;;;;;;;;;;;;;
2021/08/19 00:12:53;;;;;;;2.90;1.17;;;;;;;13.63;70.78;100393.47;4960001;28;20346;-74
2021/08/19 00:15:30;;;;;;;0.50;0.50;;;;;;;13.68;70.94;100406.34;4955092;28;20039;-75
2021/08/19 00:17:58;;;;;;;0.73;0.73;;;;;;;13.60;71.27;100405.03;4941699;28;20027;-77
2021/08/19 00:20:33;;;;;;;0.68;0.68;;;;;;;13.49;71.11;100386.97;4960800;28;20023;-76
2021/08/19 00:23:01;;;;;;;0.70;0.70;;;;;;;13.61;71.15;100401.19;4956624;28;20042;-76
2021/08/19 00:25:37;;;;;;;0.75;0.75;;;;;;;13.35;71.01;100365.66;4947269;28;20059;-76
2021/08/19 00:28:23;;;;;;;1.27;0.77;;;;;;;13.36;71.24;100386.53;4954691;28;20055;-76
2021/08/19 00:30:52;;;;;;;1.30;0.63;;;;;;;13.25;71.73;100382.97;4948553;28;20031;-74
2021/08/19 00:33:17;;;;;;;0.70;0.70;;;;;;;13.30;71.41;100400.53;4956229;28;20094;-75
2021/08/19 00:35:43;;;;;;;3.85;0.85;;;;;;;13.21;70.93;100397.56;4951183;28;20039;-77
2021/08/19 00:38:08;;;;;;;1.10;0.50;;;;;;;13.15;71.31;100393.22;4942419;29;20437;-75
2021/08/19 00:40:34;;;;;;;0.57;0.57;;;;;;;13.08;72.05;100393.53;4933438;28;20039;-77
2021/08/19 00:43:03;;;;;;;0.70;0.70;;;;;;;13.00;71.81;100394.94;4951561;28;20031;-76
2021/08/19 00:45:29;;;;;;;0.30;0.30;;;;;;;12.91;71.47;100382.94;4934099;29;20023;-77
2021/08/19 00:47:54;;;;;;;0.57;0.40;;;;;;;12.87;71.60;100390.09;4907062;29;20103;-77
2021/08/19 00:50:32;;;;;;;1.27;0.80;;;;;;;12.82;71.76;100390.09;4955577;28;20397;-78
2021/08/19 00:52:59;;;;;;;0.98;0.85;;;;;;;12.80;71.87;100381.34;4922650;29;20023;-75
2021/08/19 00:55:25;;;;;;;0.57;0.57;;;;;;;12.77;71.75;100381.91;4950815;28;20478;-77
2021/08/19 00:57:50;;;;;;;1.40;0.70;;;;;;;12.70;71.65;100363.84;4944116;28;20094;-77
2021/08/19 01:00:16;;;;;;;0.70;0.70;;;;;;;12.69;71.99;100364.13;4942117;28;20028;-76
2021/08/19 01:02:48;;;;;;;7.45;0.80;;;;;;;12.68;72.59;100373.44;4942765;29;20016;-76
2021/08/19 01:05:18;;;;;;;1.83;1.00;;;;;;;12.61;72.53;100371.00;4951620;28;20031;-76
2021/08/19 01:07:46;;;;;;;0.77;0.77;;;;;;;12.60;72.64;100391.31;4939521;29;20572;-78
2021/08/19 01:10:12;;;;;;;5.20;0.70;;;;;;;12.56;72.49;100382.00;4960095;28;20031;-79
2021/08/19 01:12:40;;;;;;;0.73;0.73;;;;;;;12.53;72.63;100372.41;4958282;28;20022;-78
2021/08/19 01:15:06;;;;;;;1.65;0.88;;;;;;;12.56;72.62;100387.47;4953970;28;20185;-78
2021/08/19 01:17:32;;;;;;;1.05;0.47;;;;;;;12.57;73.24;100383.63;4953412;28;20044;-77
2021/08/19 01:19:59;;;;;;;1.10;0.77;;;;;;;12.60;73.34;100377.59;4930218;28;20035;-78
2021/08/19 01:22:25;;;;;;;3.03;0.63;;;;;;;12.55;72.99;100377.59;4930011;29;20019;-74
2021/08/19 01:24:50;;;;;;;0.57;0.57;;;;;;;12.58;73.18;100379.78;4940730;28;20062;-76
2021/08/19 01:27:17;;;;;;;0.57;0.57;;;;;;;12.56;72.79;100365.53;4955378;28;20099;-76
2021/08/19 01:29:44;;;;;;;1.20;0.80;;;;;;;12.60;72.80;100372.09;4955879;28;20048;-77
2021/08/19 01:32:11;;;;;;;0.63;0.63;;;;;;;12.58;72.68;100374.28;4937085;28;20382;-76
2021/08/19 01:34:37;;;;;;;0.45;0.45;;;;;;;12.53;73.22;100377.88;4950418;28;20470;-76
2021/08/19 01:37:03;;;;;;;0.63;0.50;;;;;;;12.47;72.96;100367.19;4957178;28;20057;-75
2021/08/19 01:39:29;;;;;;;2.00;0.90;;;;;;;12.43;73.07;100366.94;4941159;28;20421;-75
2021/08/19 01:41:55;;;;;;;0.43;0.43;;;;;;;12.39;73.15;100368.59;4956839;28;20023;-75
2021/08/19 01:44:21;;;;;;;0.80;0.80;;;;;;;12.36;73.37;100371.91;4940588;28;20035;-76
2021/08/19 01:46:57;;;;;;;0.90;0.70;;;;;;;12.30;73.35;100373.84;4931568;28;20374;-76
2021/08/19 01:49:23;;;;;;;0.82;0.82;;;;;;;12.27;73.64;100379.09;4966379;28;20031;-75
2021/08/19 01:51:49;;;;;;;1.45;0.73;;;;;;;12.24;73.05;100374.97;4966439;28;20146;-77
2021/08/19 01:54:15;;;;;;;1.20;0.60;;;;;;;12.22;73.56;100374.41;4954207;29;20027;-78
2021/08/19 01:56:42;;;;;;;0.57;0.57;;;;;;;12.23;72.94;100368.66;4944266;29;20337;-77
2021/08/19 01:59:07;;;;;;;1.48;0.60;;;;;;;12.21;73.00;100370.84;4967369;28;20023;-77
2021/08/19 02:01:32;;;;;;;0.52;0.52;;;;;;;12.17;72.89;100371.69;4964343;28;20046;-77
2021/08/19 02:03:58;;;;;;;0.45;0.35;;;;;;;12.15;73.55;100377.47;4946865;28;20115;-78
2021/08/19 02:06:23;;;;;;;0.40;0.40;;;;;;;12.11;73.61;100370.06;4958185;28;20096;-77
2021/08/19 02:08:49;;;;;;;0.30;0.30;;;;;;;12.08;73.19;100365.16;4962582;28;20102;-78
2021/08/19 02:11:15;;;;;;;0.60;0.60;;;;;;;12.05;73.34;100366.50;4942676;28;20114;-77
2021/08/19 02:13:41;;;;;;;0.50;0.50;;;;;;;12.01;73.53;100362.69;4933647;29;20055;-77
2021/08/19 02:16:06;;;;;;;0.43;0.43;;;;;;;11.96;72.73;100360.78;4963682;28;20031;-78
2021/08/19 02:18:32;;;;;;;1.05;0.43;;;;;;;11.92;72.95;100356.09;4949280;28;20449;-76
2021/08/19 02:20:57;;;;;;;0.52;0.50;;;;;;;11.88;73.23;100364.03;4931714;29;20034;-77
2021/08/19 02:23:23;;;;;;;1.15;0.40;;;;;;;11.80;73.54;100354.47;4946042;28;20023;-77
2021/08/19 02:25:49;;;;;;;0.40;0.40;;;;;;;11.74;73.28;100354.72;4960213;28;20082;-76
2021/08/19 02:28:15;;;;;;;0.50;0.50;;;;;;;11.67;73.61;100358.59;4962957;28;20621;-76
2021/08/19 02:30:40;;;;;;;3.70;0.50;;;;;;;11.64;73.88;100356.41;4965712;28;20367;-76
2021/08/19 02:33:06;;;;;;;0.45;0.45;;;;;;;11.65;74.17;100358.06;4963450;28;20038;-77
2021/08/19 02:35:31;;;;;;;1.90;0.60;;;;;;;11.67;74.18;100349.56;4939939;29;20078;-76
2021/08/19 02:38:00;;;;;;;0.70;0.70;;;;;;;11.72;74.45;100356.94;4968798;28;20489;-75
2021/08/19 02:40:27;;;;;;;0.90;0.90;;;;;;;11.78;74.59;100353.09;4956543;28;20031;-75
2021/08/19 02:42:53;;;;;;;0.65;0.52;;;;;;;11.84;73.96;100351.97;4944514;28;20465;-75
2021/08/19 02:45:19;;;;;;;0.70;0.70;;;;;;;11.93;74.01;100353.13;4960472;28;20015;-75
2021/08/19 02:47:45;;;;;;;0.60;0.60;;;;;;;12.05;73.79;100363.78;4953533;28;20028;-75
2021/08/19 02:50:10;;;;;;;0.50;0.50;;;;;;;12.10;74.15;100351.97;4959325;28;20031;-77
2021/08/19 02:52:36;;;;;;;0.43;0.43;;;;;;;12.16;74.04;100345.38;4956469;28;20011;-76
2021/08/19 02:55:03;;;;;;;0.52;0.52;;;;;;;12.28;73.79;100353.28;4962723;28;20043;-77
2021/08/19 02:57:29;;;;;;;0.45;0.45;;;;;;;12.31;74.30;100348.06;4965646;28;20024;-77
2021/08/19 02:59:54;;;;;;;0.63;0.52;;;;;;;12.36;73.75;100336.25;4928162;29;20397;-77
2021/08/19 03:02:20;;;;;;;0.55;0.55;;;;;;;12.43;73.21;100344.19;4960444;28;20023;-77
2021/08/19 03:04:46;;;;;;;0.50;0.30;;;;;;;12.45;73.31;100331.03;4962022;28;20445;-73
2021/08/19 03:07:12;;;;;;;0.40;0.40;;;;;;;12.52;73.99;100337.03;4934506;28;20044;-75
2021/08/19 03:09:38;;;;;;;0.93;0.60;;;;;;;12.56;73.84;100340.84;4924764;29;20039;-75
2021/08/19 03:12:04;;;;;;;0.60;0.50;;;;;;;12.62;73.73;100339.72;4958111;28;20080;-73
2021/08/19 03:14:30;;;;;;;0.50;0.50;;;;;;;12.66;73.70;100343.53;4954638;28;20062;-74
2021/08/19 03:16:55;;;;;;;0.60;0.60;;;;;;;12.70;73.07;100343.78;4963381;28;20031;-74
2021/08/19 03:19:21;;;;;;;1.45;0.60;;;;;;;12.75;73.29;100339.09;4959767;28;20058;-74
2021/08/19 03:21:46;;;;;;;0.50;0.50;;;;;;;12.80;73.51;100340.19;4944402;28;20131;-75
2021/08/19 03:24:13;;;;;;;1.17;0.65;;;;;;;12.84;72.77;100338.50;4956825;28;20097;-74
2021/08/19 03:26:41;;;;;;;0.60;0.60;;;;;;;12.89;73.22;100335.72;4931210;28;20079;-75
2021/08/19 03:29:07;;;;;;;0.65;0.65;;;;;;;12.91;72.70;100333.53;4939273;28;20618;-76
2021/08/19 03:31:32;;;;;;;0.50;0.50;;;;;;;12.94;73.11;100335.72;4932140;28;20046;-75
2021/08/19 03:33:58;;;;;;;1.25;0.40;;;;;;;12.96;72.84;100333.50;4944296;28;20114;-75
2021/08/19 03:36:25;;;;;;;0.98;0.57;;;;;;;13.02;72.47;100329.59;4933830;28;20032;-75
2021/08/19 03:38:51;;;;;;;0.95;0.68;;;;;;;13.11;72.94;100340.78;4916407;29;20042;-74
2021/08/19 03:41:16;;;;;;;0.73;0.60;;;;;;;13.13;73.02;100340.50;4941724;28;20437;-75
2021/08/19 03:43:44;;;;;;;1.30;0.57;;;;;;;13.11;72.67;100329.81;4944935;29;20093;-74
2021/08/19 03:46:10;;;;;;;0.73;0.50;;;;;;;13.19;72.75;100333.91;4939701;29;20055;-73
2021/08/19 03:48:35;;;;;;;0.93;0.50;;;;;;;13.25;72.31;100332.75;4926463;28;20086;-74
2021/08/19 03:51:01;;;;;;;0.50;0.50;;;;;;;13.26;72.15;100328.91;4938497;28;20053;-74
2021/08/19 03:53:26;;;;;;;0.57;0.50;;;;;;;13.29;72.20;100328.31;4926834;28;20026;-75
2021/08/19 03:55:52;;;;;;;0.60;0.60;;;;;;;13.29;72.28;100328.31;4920274;28;20040;-74
2021/08/19 03:58:18;;;;;;;0.52;0.30;;;;;;;13.36;72.72;100334.34;4950127;28;20103;-74
2021/08/19 04:00:46;;;;;;;0.68;0.43;;;;;;;13.39;72.13;100325.53;4923801;28;20022;-75
2021/08/19 04:03:12;;;;;;;0.60;0.60;;;;;;;13.38;71.98;100310.16;4959623;28;20015;-74
2021/08/19 04:05:37;;;;;;;0.73;0.50;;;;;;;13.38;72.30;100307.41;4908151;28;20027;-74
2021/08/19 04:08:03;;;;;;;0.47;0.40;;;;;;;13.48;72.32;100319.41;4967937;28;20062;-74
2021/08/19 04:10:28;;;;;;;0.40;0.40;;;;;;;13.50;72.32;100311.72;4927822;28;20054;-74
2021/08/19 04:12:54;;;;;;;0.40;0.40;;;;;;;13.49;71.58;100315.56;4920666;29;20474;-74
2021/08/19 04:15:20;;;;;;;1.33;0.43;;;;;;;13.53;71.83;100313.88;4925370;28;20043;-75
2021/08/19 04:17:45;;;;;;;0.85;0.50;;;;;;;13.51;71.98;100307.84;4935007;28;20031;-73
2021/08/19 04:20:13;;;;;;;0.32;0.32;;;;;;;13.54;72.28;100308.09;4926660;28;20082;-74
2021/08/19 04:22:38;;;;;;;0.40;0.40;;;;;;;13.58;72.06;100303.66;4940932;29;20035;-74
2021/08/19 04:25:04;;;;;;;0.40;0.30;;;;;;;13.58;72.03;100308.31;4937336;28;20118;-75
2021/08/19 04:27:30;;;;;;;0.43;0.32;;;;;;;13.63;72.12;100312.97;4933712;29;20122;-75
2021/08/19 04:29:56;;;;;;;0.65;0.35;;;;;;;13.66;72.03;100299.47;4926309;29;20461;-74
2021/08/19 04:32:21;;;;;;;0.57;0.32;;;;;;;13.68;71.55;100297.25;4922442;29;20039;-75
2021/08/19 04:34:47;;;;;;;0.68;0.40;;;;;;;13.70;71.45;100306.03;4910035;28;20082;-76
2021/08/19 04:37:13;;;;;;;1.23;0.40;;;;;;;13.74;71.12;100301.59;4922150;28;20032;-75
2021/08/19 04:39:38;;;;;;;0.20;0.20;;;;;;;13.75;70.94;100307.91;4926752;28;20043;-75
2021/08/19 04:42:04;;;;;;;1.95;0.40;;;;;;;13.81;71.06;100300.41;4932735;28;20023;-74
2021/08/19 04:44:30;;;;;;;0.30;0.30;;;;;;;13.84;71.14;100306.13;4927457;29;20031;-75
2021/08/19 04:46:56;;;;;;;0.30;0.30;;;;;;;13.87;70.83;100304.75;4930764;29;20035;-75
2021/08/19 04:49:22;;;;;;;0.60;0.60;;;;;;;13.82;70.74;100296.56;4912040;29;20031;-75
2021/08/19 04:51:48;;;;;;;0.50;0.50;;;;;;;13.90;71.03;100306.91;4925866;28;20035;-75
2021/08/19 04:54:14;;;;;;;0.20;0.20;;;;;;;13.87;71.23;100296.50;4934468;28;20046;-75
2021/08/19 04:56:39;;;;;;;0.13;0.10;;;;;;;13.96;71.01;100311.25;4939200;28;20027;-75
2021/08/19 04:59:06;;;;;;;0.40;0.30;;;;;;;13.97;70.43;100310.13;4938256;28;20031;-76
2021/08/19 05:01:32;;;;;;;0.20;0.20;;;;;;;13.96;70.75;100314.00;4933767;29;20122;-76
2021/08/19 05:04:00;;;;;;;2.28;0.20;;;;;;;14.01;71.11;100316.69;4937232;29;20062;-76
2021/08/19 05:06:27;;;;;;;0.40;0.30;;;;;;;14.04;70.58;100316.09;4959539;28;20061;-76
2021/08/19 05:08:54;;;;;;;0.30;0.30;;;;;;;14.03;70.82;100316.41;4953330;28;20031;-74
2021/08/19 05:11:21;;;;;;;0.30;0.30;;;;;;;14.03;70.64;100311.75;4956127;28;20043;-74
2021/08/19 05:13:46;;;;;;;0.40;0.40;;;;;;;14.06;70.39;100324.91;4950893;28;20059;-73
2021/08/19 05:16:11;;;;;;;0.20;0.20;;;;;;;14.06;70.41;100319.41;4943691;29;20035;-75
2021/08/19 05:18:38;;;;;;;0.28;0.28;;;;;;;14.07;69.85;100321.00;4956097;28;20110;-74
2021/08/19 05:21:04;;;;;;;0.30;0.30;;;;;;;14.08;69.97;100325.41;4939867;29;20035;-74
2021/08/19 05:23:29;;;;;;;0.45;0.30;;;;;;;14.10;70.12;100320.44;4952575;28;20443;-74
2021/08/19 05:25:55;;;;;;;0.35;0.35;;;;;;;14.11;69.98;100324.00;4957281;28;20142;-74
2021/08/19 05:28:20;;;;;;;0.28;0.28;;;;;;;14.13;70.14;100325.38;4924121;29;20165;-75
2021/08/19 05:30:47;;;;;;;3.50;0.20;;;;;;;14.14;69.92;100324.25;4959700;28;20042;-75
2021/08/19 05:33:12;;;;;;;0.73;0.30;;;;;;;14.13;69.83;100319.88;4962452;28;20485;-75
2021/08/19 05:35:38;;;;;;;0.75;0.30;;;;;;;14.20;70.58;100314.00;4940586;28;20035;-73
2021/08/19 05:38:03;;;;;;;0.10;0.10;;;;;;;14.25;69.80;100321.38;4958644;28;20046;-75
2021/08/19 05:40:29;;;;;;;0.20;0.20;;;;;;;14.26;69.53;100320.25;4922246;28;20472;-74
2021/08/19 05:42:54;;;;;;;0.10;0.10;;;;;;;14.28;69.61;100318.88;4960491;28;20023;-75
2021/08/19 05:45:19;;;;;;;2.72;0.50;;;;;;;14.33;69.31;100334.47;4939876;29;20031;-75
2021/08/19 05:47:45;;;;;;;0.32;0.32;;;;;;;14.35;69.05;100321.25;4941051;29;20035;-77
2021/08/19 05:50:10;;;;;;;0.20;0.20;;;;;;;14.36;69.29;100322.88;4952682;28;20042;-75
2021/08/19 05:52:37;;;;;;;0.30;0.30;;;;;;;14.38;68.81;100325.34;4949973;28;20078;-75
2021/08/19 05:55:04;;;;;;;1.55;0.20;;;;;;;14.39;68.92;100321.50;4953553;28;20023;-74
2021/08/19 05:57:29;;;;;;;0.60;0.30;;;;;;;14.40;68.57;100323.94;4957031;28;20028;-75
2021/08/19 05:59:54;;;;;;;0.10;0.10;;;;;;;14.45;68.82;100323.88;4960248;28;20086;-74
2021/08/19 06:02:20;;;;;;;0.15;0.10;;;;;;;14.48;68.39;100317.81;4961633;28;20027;-75
2021/08/19 06:04:45;;;;;;;0.30;0.20;;;;;;;14.53;68.61;100321.56;4940979;28;20536;-73
2021/08/19 06:07:11;;;;;;;0.00;0.00;;;;;;;14.55;68.61;100317.41;4942313;29;20495;-76
2021/08/19 06:09:37;;;;;;;0.10;0.10;;;;;;;14.64;68.59;100314.84;4932466;28;20038;-75
2021/08/19 06:12:03;;;;;;;0.20;0.20;;;;;;;14.68;68.39;100315.09;4955364;28;20031;-75
2021/08/19 06:14:28;;;;;;;0.10;0.10;;;;;;;14.71;68.16;100322.75;4943612;29;20035;-77
2021/08/19 06:16:54;;;;;;;1.35;0.10;;;;;;;14.73;67.63;100321.31;4965074;28;20045;-76
2021/08/19 06:19:19;;;;;;;0.10;0.10;;;;;;;14.78;68.00;100328.72;4960012;28;20026;-76
2021/08/19 06:21:48;;;;;;;0.22;0.10;;;;;;;14.80;67.84;100321.78;4938847;28;20044;-76
2021/08/19 06:24:14;;;;;;;0.22;0.17;;;;;;;14.81;67.68;100320.69;4933743;28;20046;-74
2021/08/19 06:26:39;;;;;;;0.00;0.00;;;;;;;14.93;67.99;100322.16;4938941;28;20048;-75
2021/08/19 06:29:05;;;;;;;0.10;0.10;;;;;;;15.08;67.59;100330.19;4935096;28;20035;-76
2021/08/19 06:31:30;;;;;;;0.30;0.17;;;;;;;15.15;67.48;100327.06;4945363;28;20494;-73
2021/08/19 06:33:56;;;;;;;0.13;0.13;;;;;;;15.24;67.22;100322.50;4943321;28;20034;-74
2021/08/19 06:36:22;;;;;;;0.38;0.20;;;;;;;15.37;67.00;100323.69;4951124;28;20089;-74
2021/08/19 06:38:52;;;;;;;0.15;0.15;;;;;;;15.49;66.45;100334.22;4946417;28;20121;-74
2021/08/19 06:41:24;;;;;;;0.15;0.13;;;;;;;15.62;66.62;100325.19;4911596;29;20472;-77
2021/08/19 06:43:51;;;;;;;0.10;0.10;;;;;;;15.73;66.99;100323.06;4926161;28;20099;-75
2021/08/19 06:46:17;;;;;;;0.20;0.20;;;;;;;15.91;66.03;100332.44;4928321;28;20023;-75
2021/08/19 06:48:47;;;;;;;2.72;0.20;;;;;;;15.99;65.82;100339.16;4954379;28;20490;-74
2021/08/19 06:51:14;;;;;;;0.10;0.10;;;;;;;16.07;65.87;100319.16;4925126;29;20066;-73
2021/08/19 06:53:42;;;;;;;0.30;0.28;;;;;;;16.20;65.25;100323.88;4925677;29;20048;-75
2021/08/19 06:56:09;;;;;;;0.30;0.15;;;;;;;16.34;64.35;100323.03;4955564;28;20039;-72
2021/08/19 06:58:35;;;;;;;0.30;0.28;;;;;;;16.40;64.13;100319.88;4943415;28;20481;-74
2021/08/19 07:01:00;;;;;;;0.20;0.20;;;;;;;16.50;64.23;100316.09;4918668;29;20047;-74
2021/08/19 07:03:26;;;;;;;0.52;0.28;;;;;;;16.67;63.32;100323.72;4940767;29;20082;-73
2021/08/19 07:05:52;;;;;;;0.10;0.10;;;;;;;16.75;63.32;100319.44;4944542;29;20023;-74
2021/08/19 07:08:27;;;;;;;0.73;0.32;;;;;;;16.78;62.48;100316.03;4937579;28;20034;-72
2021/08/19 07:10:53;;;;;;;1.02;0.30;;;;;;;16.83;61.67;100332.47;4932162;28;20047;-73
2021/08/19 07:13:19;;;;;;;0.50;0.38;;;;;;;16.80;60.94;100332.31;4921388;28;20047;-74
2021/08/19 07:15:48;;;;;;;0.50;0.32;;;;;;;16.75;60.92;100333.25;4911299;28;20042;-75
2021/08/19 07:18:20;;;;;;;0.25;0.25;;;;;;;16.58;60.62;100323.63;4935852;28;20051;-75
2021/08/19 07:20:45;;;;;;;0.68;0.40;;;;;;;16.56;60.65;100336.94;4946829;28;20035;-79
2021/08/19 07:23:42;;;;;;;0.40;0.40;;;;;;;16.47;60.59;100338.78;4947334;28;20114;-74
2021/08/19 07:26:08;;;;;;;0.77;0.50;;;;;;;16.30;60.46;100325.63;4949224;28;20043;-74
2021/08/19 07:28:35;;;;;;;0.38;0.30;;;;;;;16.44;60.91;100333.06;4906964;28;20054;-75
2021/08/19 07:31:02;;;;;;;0.50;0.30;;;;;;;16.52;60.11;100335.09;4927935;28;20126;-74
2021/08/19 07:49:57;;;;;;;0.35;0.30;;;;;;;17.19;58.71;100326.19;4894550;29;20040;-74
2021/08/19 08:03:16;;;;;;;0.55;0.40;;;;;;;18.00;55.49;100318.88;4810106;29;20054;-76
2021/08/19 08:05:42;;;;;;;0.47;0.30;;;;;;;18.21;56.25;100329.38;4875301;29;20048;-76
2021/08/19 08:08:12;;;;;;;1.65;0.47;;;;;;;18.35;55.46;100315.44;4907637;29;20115;-76
2021/08/19 08:10:41;;;;;;;1.90;0.60;;;;;;;18.58;55.28;100332.75;4917769;29;20036;-75
2021/08/19 08:13:08;;;;;;;1.95;0.70;;;;;;;18.79;54.82;100324.66;4916623;29;20030;-75
2021/08/19 08:15:41;;;;;;;0.47;0.47;;;;;;;18.83;53.23;100325.63;4919909;29;20043;-75
2021/08/19 08:18:13;;;;;;;1.25;0.40;;;;;;;18.95;53.90;100334.16;4910769;29;20032;-75
2021/08/19 08:20:39;;;;;;;0.55;0.50;;;;;;;19.02;53.78;100334.47;4910047;29;20039;-76
2021/08/19 08:23:05;;;;;;;0.40;0.30;;;;;;;19.17;53.69;100340.66;4911560;29;20032;-77
2021/08/19 08:25:31;;;;;;;0.35;0.30;;;;;;;19.23;53.11;100328.31;4894919;29;20040;-76
2021/08/19 08:28:09;;;;;;;0.40;0.30;;;;;;;19.42;52.62;100327.13;4912132;29;20090;-75
2021/08/19 08:30:40;;;;;;;4.57;0.30;;;;;;;19.48;52.27;100323.06;4915379;29;20052;-77
2021/08/19 08:33:07;;;;;;;0.50;0.50;;;;;;;19.67;52.22;100326.28;4912476;29;20033;-76
2021/08/19 08:35:40;;;;;;;0.60;0.60;;;;;;;19.83;51.47;100322.97;4909404;29;20024;-76
2021/08/19 08:38:08;;;;;;;0.68;0.60;;;;;;;19.76;51.00;100317.13;4910756;29;20047;-76
2021/08/19 08:40:36;;;;;;;0.30;0.30;;;;;;;19.85;51.62;100331.81;4914633;29;20478;-78
2021/08/19 08:43:03;;;;;;;0.28;0.28;;;;;;;20.01;51.71;100327.34;4912202;29;20059;-75
2021/08/19 08:45:32;;;;;;;1.38;0.40;;;;;;;20.20;51.39;100331.69;4922070;29;20225;-76
2021/08/19 08:47:58;;;;;;;2.40;0.47;;;;;;;20.35;50.86;100338.63;4922042;29;20078;-76
2021/08/19 08:50:25;;;;;;;0.95;0.60;;;;;;;20.32;49.87;100334.53;4940299;29;20026;-77
2021/08/19 08:52:56;;;;;;;1.85;0.60;;;;;;;20.38;49.83;100337.94;4931109;29;20035;-77
2021/08/19 09:06:40;;;;;;;;;;;;;;;;;;;;;
2021/08/19 09:12:55;;;;;;;0.50;0.40;;;;;;;20.55;49.68;100331.50;4957736;28;20042;-74
2021/08/19 09:15:32;;;;;;;0.60;0.40;;;;;;;20.55;49.85;100321.19;4948603;28;20112;-76
2021/08/19 09:21:51;;;;;;;0.55;0.55;;;;;;;20.98;49.14;100322.06;5050632;28;20048;-81
2021/08/19 09:24:36;;;;;;;0.55;0.55;;;;;;;21.32;49.02;100320.16;5055714;28;20034;-79
2021/08/19 09:27:11;;;;;;;;;;;;;;;21.73;48.27;100339.91;5037988;28;20133;-78
2021/08/19 09:29:42;;;;;;;1.60;0.65;;;;;;;21.43;47.85;100315.78;5033839;28;19998;-77
2021/08/19 09:32:08;;;;;;;1.50;0.73;;;;;;;21.55;47.67;100330.91;5029829;28;20170;-75
2021/08/19 09:34:38;;;;;;;0.85;0.50;;;;;;;21.61;47.87;100333.16;5030959;28;20487;-78
2021/08/19 09:37:11;;;;;;;0.35;0.30;;;;;;;21.78;48.48;100315.44;5046282;28;20030;-78
2021/08/19 09:39:49;;;;;;;0.63;0.60;;;;;;;21.97;47.38;100322.44;5035425;28;20026;-75
2021/08/19 09:42:18;;;;;;;0.55;0.50;;;;;;;22.06;47.17;100331.47;5031416;28;20022;-75
2021/08/19 09:44:47;;;;;;;0.68;0.57;;;;;;;22.16;47.31;100329.44;5029278;28;20377;-75
2021/08/19 09:47:33;;;;;;;0.57;0.47;;;;;;;22.23;47.26;100324.09;5025836;28;20028;-76
2021/08/19 09:50:11;;;;;;;0.85;0.73;;;;;;;22.23;47.73;100330.47;5034627;28;20029;-74
2021/08/19 09:52:37;;;;;;;1.10;0.60;;;;;;;22.10;47.82;100318.50;5026980;28;20091;-74
2021/08/19 09:55:38;;;;;;;0.93;0.70;;;;;;;22.52;47.74;100330.63;5029680;28;20094;-75
2021/08/19 09:58:04;;;;;;;0.80;0.70;;;;;;;22.81;48.03;100316.41;5034340;28;20044;-73
2021/08/19 10:00:45;;;;;;;1.58;0.82;;;;;;;23.31;47.52;100319.88;5032045;28;20109;-74
2021/08/19 10:03:14;;;;;;;0.63;0.63;;;;;;;23.44;46.40;100309.47;5035553;28;20090;-76
2021/08/19 10:05:39;;;;;;;0.75;0.75;;;;;;;23.56;45.65;100322.53;5023320;28;20042;-75
2021/08/19 10:08:08;;;;;;;0.77;0.77;;;;;;;23.42;45.16;100316.56;5037968;28;20054;-76
2021/08/19 10:10:35;;;;;;;0.90;0.63;;;;;;;23.37;45.77;100325.22;5021225;28;20030;-76
2021/08/19 10:13:02;;;;;;;1.40;0.63;;;;;;;23.26;46.15;100319.31;5018759;28;20038;-75
2021/08/19 10:15:28;;;;;;;0.85;0.80;;;;;;;23.07;46.05;100323.53;5024013;28;20030;-74
2021/08/19 10:17:58;;;;;;;1.10;0.90;;;;;;;22.72;46.27;100317.69;5015768;28;20026;-75
2021/08/19 10:20:39;;;;;;;0.70;0.70;;;;;;;22.59;46.77;100319.69;5011492;28;20097;-76
2021/08/19 10:23:06;;;;;;;0.73;0.73;;;;;;;22.46;47.27;100316.91;5019306;28;20047;-75
2021/08/19 10:25:32;;;;;;;2.15;1.33;;;;;;;22.47;47.50;100310.19;5016110;28;20091;-74
2021/08/19 10:28:21;;;;;;;1.17;0.70;;;;;;;22.60;47.88;100304.59;5011607;28;20026;-75
2021/08/19 10:30:49;;;;;;;3.50;0.57;;;;;;;22.65;48.54;100302.38;5018287;28;20018;-74
2021/08/19 10:33:37;;;;;;;2.55;0.93;;;;;;;22.86;48.25;100306.19;5011301;28;20022;-76
2021/08/19 10:36:29;;;;;;;3.05;0.80;;;;;;;23.05;48.64;100302.75;5010820;28;20041;-76
2021/08/19 10:39:20;;;;;;;1.00;1.00;;;;;;;23.22;48.12;100296.06;5017934;28;20025;-75
2021/08/19 10:41:49;;;;;;;0.50;0.50;;;;;;;23.33;48.27;100286.03;5012688;28;20057;-75
2021/08/19 10:44:15;;;;;;;0.93;0.60;;;;;;;23.45;47.76;100294.34;5014233;28;20022;-75
2021/08/19 10:46:50;;;;;;;0.55;0.55;;;;;;;23.49;48.08;100298.03;5011005;28;20041;-75
2021/08/19 10:49:33;;;;;;;0.73;0.40;;;;;;;23.40;47.81;100291.81;5017404;28;20067;-77
2021/08/19 10:52:08;;;;;;;0.95;0.70;;;;;;;23.37;48.39;100292.53;5005465;28;20160;-76
2021/08/19 10:54:41;;;;;;;0.47;0.45;;;;;;;23.24;48.90;100294.56;5008949;28;20021;-74
2021/08/19 10:57:30;;;;;;;0.40;0.40;;;;;;;23.18;49.73;100291.22;5014303;28;20065;-76
2021/08/19 11:00:07;;;;;;;0.82;0.82;;;;;;;23.17;49.21;100289.59;5007190;28;20026;-74
2021/08/19 11:02:46;;;;;;;0.93;0.52;;;;;;;22.91;49.57;100297.56;5000593;28;20581;-75
2021/08/19 11:05:21;;;;;;;0.70;0.65;;;;;;;22.69;50.62;100296.91;5004060;28;20087;-74
2021/08/19 11:08:03;;;;;;;1.45;0.30;;;;;;;22.54;51.33;100289.28;5015315;28;20082;-76
2021/08/19 11:10:30;;;;;;;0.15;0.15;;;;;;;22.41;52.38;100296.84;5016507;28;20030;-76
2021/08/19 11:13:05;;;;;;;0.60;0.38;;;;;;;22.43;52.74;100289.75;5033486;28;20036;-76
2021/08/19 11:15:40;;;;;;;0.40;0.35;;;;;;;22.44;52.39;100296.97;5012329;28;20033;-76
2021/08/19 11:18:06;;;;;;;1.98;0.50;;;;;;;22.39;52.58;100286.03;5012730;28;20044;-77
2021/08/19 11:20:37;;;;;;;0.45;0.32;;;;;;;22.37;52.83;100290.34;5016423;28;20026;-79
2021/08/19 11:23:06;;;;;;;0.47;0.30;;;;;;;22.53;53.62;100287.66;5042288;28;20103;-73
2021/08/19 11:25:34;;;;;;;0.20;0.10;;;;;;;22.71;53.27;100277.88;5022543;28;20129;-73
2021/08/19 11:28:13;;;;;;;2.28;0.60;;;;;;;22.82;52.95;100284.59;5016655;28;20087;-74
2021/08/19 11:30:46;;;;;;;1.42;0.68;;;;;;;22.71;52.85;100289.03;5013945;28;20026;-75
2021/08/19 11:33:12;;;;;;;1.00;0.88;;;;;;;22.72;53.40;100293.44;5017376;28;20063;-74
2021/08/19 11:35:39;;;;;;;0.90;0.80;;;;;;;22.66;53.47;100286.47;5016667;28;20013;-75
2021/08/19 11:38:12;;;;;;;0.80;0.80;;;;;;;22.58;53.04;100281.84;5030877;28;20037;-74
2021/08/19 11:40:41;;;;;;;0.52;0.40;;;;;;;22.46;53.84;100283.47;5015668;28;20029;-74
2021/08/19 11:43:30;;;;;;;0.20;0.20;;;;;;;22.48;53.75;100281.16;4997224;28;20033;-75
2021/08/19 11:46:08;;;;;;;1.58;0.60;;;;;;;22.36;54.24;100283.97;5013516;28;20061;-76
2021/08/19 11:48:35;;;;;;;0.40;0.40;;;;;;;22.26;54.06;100278.84;5006544;28;20033;-76
2021/08/19 11:51:03;;;;;;;0.50;0.47;;;;;;;22.22;54.69;100275.13;5014737;28;20038;-76
2021/08/19 11:53:29;;;;;;;1.90;0.63;;;;;;;22.04;54.96;100263.41;4978960;28;20376;-77
2021/08/19 11:55:56;;;;;;;0.40;0.40;;;;;;;21.99;55.26;100270.03;5080343;28;20034;-76
2021/08/19 11:58:26;;;;;;;1.10;0.60;;;;;;;22.08;55.18;100265.16;4975147;28;20045;-78
2021/08/19 12:01:09;;;;;;;0.50;0.50;;;;;;;22.26;55.44;100273.25;5016517;28;20030;-76
2021/08/19 12:03:40;;;;;;;1.85;0.50;;;;;;;22.13;55.65;100264.91;5014671;28;20086;-77
2021/08/19 12:06:17;;;;;;;0.82;0.47;;;;;;;22.10;55.76;100273.94;5009052;28;20029;-78
2021/08/19 12:08:48;;;;;;;0.20;0.20;;;;;;;22.14;55.76;100272.09;5014217;28;20010;-77
2021/08/19 12:11:19;;;;;;;0.70;0.47;;;;;;;22.23;55.55;100266.41;5016406;28;20551;-78
2021/08/19 12:13:46;;;;;;;1.05;0.40;;;;;;;22.28;55.88;100265.34;5015654;28;20043;-77
2021/08/19 12:16:12;;;;;;;0.50;0.50;;;;;;;22.26;55.79;100262.13;5002127;28;20069;-77
2021/08/19 12:18:37;;;;;;;0.50;0.28;;;;;;;22.34;56.38;100277.94;5025438;28;20110;-78
2021/08/19 12:21:18;;;;;;;2.03;0.30;;;;;;;22.64;56.15;100272.88;5000676;28;20053;-77
2021/08/19 12:23:46;;;;;;;0.40;0.40;;;;;;;22.96;55.22;100272.22;5014073;28;20022;-78